Time;durP1;ratioP1;P1;durP2;ratioP2;P2;SDS_P1;SDS_P2;PMS_P1;PMS_P2;Temp;Humidity;BMP_temperature;BMP_pressure;BME280_temperature;BME280_humidity;BME280_pressure;Samples;Min_cycle;Max_cycle;Signal;HPM_P1;HPM_P2
2021/12/08 00:00:30;;;;;;;0.00;0.00;;;8.90;99.90;;;;;;5052322;28;20055;-80
2021/12/08 00:03:00;;;;;;;0.10;0.10;;;8.90;99.90;;;;;;5052456;28;20377;-81
2021/12/08 00:05:27;;;;;;;3.05;1.08;;;8.90;99.90;;;;;;5052693;28;20037;-82
2021/12/08 00:07:53;;;;;;;0.10;0.10;;;9.00;99.90;;;;;;5051902;28;20107;-80
2021/12/08 00:13:05;;;;;;;0.00;0.00;;;8.80;99.90;;;;;;5036302;28;20052;-81
2021/12/08 00:15:32;;;;;;;0.28;0.28;;;8.90;99.90;;;;;;5033030;28;20420;-81
2021/12/08 00:17:59;;;;;;;0.00;0.00;;;8.90;99.90;;;;;;5032785;28;20397;-81
2021/12/08 00:20:29;;;;;;;0.80;0.43;;;8.90;99.90;;;;;;5032519;28;20402;-82
2021/12/08 00:22:54;;;;;;;0.00;0.00;;;7.40;99.90;;;;;;5033106;28;20029;-81
2021/12/08 00:25:20;;;;;;;0.00;0.00;;;6.70;99.90;;;;;;5041745;28;20029;-81
2021/12/08 00:27:46;;;;;;;0.00;0.00;;;6.60;99.90;;;;;;5052303;28;20060;-82
2021/12/08 00:30:12;;;;;;;0.03;0.03;;;6.60;99.90;;;;;;5052591;28;20025;-81
2021/12/08 00:32:37;;;;;;;0.00;0.00;;;6.70;99.90;;;;;;5052351;28;20021;-81
2021/12/08 00:35:07;;;;;;;1.65;0.45;;;6.80;99.90;;;;;;5052190;28;20456;-82
2021/12/08 00:37:32;;;;;;;0.40;0.40;;;6.90;99.90;;;;;;5051227;28;20460;-82
2021/12/08 00:39:59;;;;;;;0.00;0.00;;;7.00;99.90;;;;;;5052641;28;20112;-81
2021/12/08 00:42:25;;;;;;;0.00;0.00;;;7.00;99.90;;;;;;5052253;28;20025;-82
2021/12/08 00:44:51;;;;;;;0.00;0.00;;;7.00;99.90;;;;;;5052279;28;20391;-82
2021/12/08 00:47:17;;;;;;;0.00;0.00;;;7.00;99.90;;;;;;5052492;28;20107;-82
2021/12/08 00:49:45;;;;;;;0.45;0.40;;;7.00;99.90;;;;;;5052022;28;20488;-83
2021/12/08 00:52:13;;;;;;;0.00;0.00;;;7.00;99.90;;;;;;5052288;28;20407;-82
2021/12/08 00:54:39;;;;;;;0.00;0.00;;;7.00;99.90;;;;;;5052138;28;20554;-82
2021/12/08 00:57:06;;;;;;;1.52;0.70;;;7.00;99.90;;;;;;5051965;28;20029;-81
2021/12/08 00:59:32;;;;;;;0.40;0.40;;;7.00;99.90;;;;;;5052143;28;20021;-82
2021/12/08 01:02:02;;;;;;;2.20;0.88;;;7.10;99.90;;;;;;5051727;28;20048;-82
2021/12/08 01:04:30;;;;;;;0.00;0.00;;;7.20;99.90;;;;;;5050581;28;20052;-82
2021/12/08 01:06:56;;;;;;;0.28;0.28;;;7.20;99.90;;;;;;5052445;28;20033;-82
2021/12/08 01:09:21;;;;;;;0.20;0.20;;;7.20;99.90;;;;;;5051967;28;20022;-81
2021/12/08 01:11:48;;;;;;;0.00;0.00;;;7.30;99.90;;;;;;5043898;28;20392;-81
2021/12/08 01:14:15;;;;;;;0.00;0.00;;;7.30;99.90;;;;;;5032025;28;20029;-82
2021/12/08 01:16:41;;;;;;;0.00;0.00;;;7.30;99.90;;;;;;5031965;28;20107;-82
2021/12/08 01:19:07;;;;;;;0.00;0.00;;;7.20;99.90;;;;;;5034238;28;20400;-81
2021/12/08 01:21:33;;;;;;;0.00;0.00;;;7.10;99.90;;;;;;5036128;28;20021;-82
2021/12/08 01:23:59;;;;;;;0.00;0.00;;;7.10;99.90;;;;;;5036071;28;20033;-81
2021/12/08 01:26:26;;;;;;;0.03;0.03;;;7.00;99.90;;;;;;5053682;28;20044;-82
2021/12/08 01:28:56;;;;;;;0.22;0.22;;;7.00;99.90;;;;;;5055839;28;20029;-81
2021/12/08 01:31:27;;;;;;;0.00;0.00;;;7.00;99.90;;;;;;5055861;28;20071;-81
2021/12/08 01:33:53;;;;;;;4.65;1.95;;;6.90;99.90;;;;;;5055729;28;20029;-81
2021/12/08 01:36:19;;;;;;;0.00;0.00;;;6.90;99.90;;;;;;5056142;28;20033;-81
2021/12/08 01:38:45;;;;;;;0.00;0.00;;;6.80;99.90;;;;;;5055755;28;20517;-81
2021/12/08 01:41:11;;;;;;;0.25;0.25;;;6.80;99.90;;;;;;5055762;28;20102;-81
2021/12/08 01:45:56;;;;;;;0.00;0.00;;;6.70;99.90;;;;;;5055826;28;20471;-81
2021/12/08 01:46:25;;;;;;;0.00;0.00;;;6.60;99.90;;;;;;5055351;28;20065;-81
2021/12/08 01:48:51;;;;;;;2.50;0.98;;;6.60;99.90;;;;;;5055237;28;20063;-80
2021/12/08 01:51:17;;;;;;;0.00;0.00;;;6.50;99.90;;;;;;5055380;28;20036;-81
2021/12/08 01:53:47;;;;;;;0.00;0.00;;;6.40;99.90;;;;;;5053920;28;20038;-81
2021/12/08 01:56:13;;;;;;;0.20;0.20;;;6.40;99.90;;;;;;5055110;28;20029;-81
2021/12/08 01:58:39;;;;;;;0.60;0.60;;;6.40;99.90;;;;;;5054936;28;20025;-80
2021/12/08 02:01:11;;;;;;;0.00;0.00;;;6.30;99.90;;;;;;5054612;28;20598;-80
2021/12/08 02:03:38;;;;;;;0.00;0.00;;;6.30;99.90;;;;;;5055108;28;20507;-80
2021/12/08 02:06:07;;;;;;;0.00;0.00;;;6.20;99.90;;;;;;5054072;28;20033;-81
2021/12/08 02:08:34;;;;;;;0.00;0.00;;;6.20;99.90;;;;;;5055011;28;20032;-81
2021/12/08 02:11:02;;;;;;;0.00;0.00;;;6.10;99.90;;;;;;5054673;28;20029;-80
2021/12/08 02:13:31;;;;;;;0.00;0.00;;;6.10;99.90;;;;;;5055489;28;20127;-80
2021/12/08 02:15:59;;;;;;;0.00;0.00;;;6.10;99.90;;;;;;5054822;28;20033;-81
2021/12/08 02:18:25;;;;;;;0.00;0.00;;;6.10;99.90;;;;;;5054377;28;20031;-80
2021/12/08 02:20:51;;;;;;;0.00;0.00;;;6.10;99.90;;;;;;5054763;28;20055;-81
2021/12/08 02:23:18;;;;;;;16.45;2.15;;;6.10;99.90;;;;;;5054833;28;20032;-81
2021/12/08 02:25:45;;;;;;;7.97;1.48;;;6.10;99.90;;;;;;5054466;28;20017;-81
2021/12/08 02:28:12;;;;;;;0.00;0.00;;;6.10;99.90;;;;;;5054747;28;20056;-81
2021/12/08 02:30:50;;;;;;;0.43;0.43;;;6.10;99.90;;;;;;5053499;28;20043;-80
2021/12/08 02:47:16;;;;;;;0.00;0.00;;;6.20;99.90;;;;;;5054718;28;20048;-82
2021/12/08 02:49:42;;;;;;;0.00;0.00;;;6.20;99.90;;;;;;5050856;28;20033;-82
2021/12/08 02:52:11;;;;;;;0.00;0.00;;;6.10;99.90;;;;;;5034013;28;20026;-82
2021/12/08 02:54:46;;;;;;;0.00;0.00;;;6.00;99.90;;;;;;5040723;28;20025;-81
2021/12/08 02:57:14;;;;;;;0.00;0.00;;;5.80;99.90;;;;;;5054435;28;20112;-81
2021/12/08 02:59:40;;;;;;;0.00;0.00;;;6.00;99.90;;;;;;5054023;28;20455;-81
2021/12/08 03:02:07;;;;;;;0.00;0.00;;;6.00;99.90;;;;;;5053934;28;20029;-81
2021/12/08 03:04:33;;;;;;;0.00;0.00;;;6.00;99.90;;;;;;5053771;28;20033;-81
2021/12/08 03:06:59;;;;;;;0.00;0.00;;;6.10;99.90;;;;;;5052833;28;20021;-81
2021/12/08 03:09:25;;;;;;;0.00;0.00;;;6.10;99.90;;;;;;5053629;28;20029;-81
2021/12/08 03:11:53;;;;;;;0.10;0.10;;;6.00;99.90;;;;;;5053869;28;20013;-81
2021/12/08 03:14:20;;;;;;;0.10;0.10;;;5.90;99.90;;;;;;5053887;28;20025;-81
2021/12/08 03:16:52;;;;;;;0.03;0.03;;;5.90;99.90;;;;;;5053520;28;20029;-80
2021/12/08 03:19:21;;;;;;;12.10;1.50;;;5.80;99.90;;;;;;5053900;28;20047;-80
2021/12/08 03:21:48;;;;;;;0.00;0.00;;;5.80;99.90;;;;;;5053932;28;20248;-80
2021/12/08 03:24:36;;;;;;;0.00;0.00;;;5.80;99.90;;;;;;5053752;28;20025;-80
2021/12/08 03:32:05;;;;;;;0.00;0.00;;;5.80;99.90;;;;;;5053952;28;20033;-81
2021/12/08 03:34:35;;;;;;;0.05;0.05;;;5.90;99.90;;;;;;5051947;28;20021;-80
2021/12/08 03:37:02;;;;;;;0.00;0.00;;;5.90;99.90;;;;;;5053714;28;20442;-80
2021/12/08 03:39:27;;;;;;;0.47;0.47;;;5.90;99.90;;;;;;5053693;28;20021;-80
2021/12/08 03:41:54;;;;;;;0.00;0.00;;;5.90;99.90;;;;;;5053194;28;20032;-80
2021/12/08 03:44:19;;;;;;;0.00;0.00;;;5.80;99.90;;;;;;5053032;28;20519;-80
2021/12/08 03:46:45;;;;;;;1.75;0.63;;;5.70;99.90;;;;;;5053354;28;20033;-80
2021/12/08 03:49:14;;;;;;;0.00;0.00;;;5.60;99.90;;;;;;5052861;28;20403;-80
2021/12/08 03:51:40;;;;;;;0.30;0.30;;;5.60;99.90;;;;;;5052828;28;20546;-80
2021/12/08 03:54:07;;;;;;;0.25;0.20;;;5.60;99.90;;;;;;5052915;28;20025;-80
2021/12/08 03:56:33;;;;;;;0.25;0.25;;;5.80;99.90;;;;;;5052852;28;20029;-80
2021/12/08 03:58:59;;;;;;;0.00;0.00;;;6.20;99.90;;;;;;5052735;28;20024;-80
2021/12/08 04:01:25;;;;;;;0.38;0.38;;;6.40;99.90;;;;;;5052610;28;20025;-80
2021/12/08 04:03:51;;;;;;;0.22;0.22;;;6.70;99.90;;;;;;5052628;28;20430;-80
2021/12/08 04:06:37;;;;;;;2.08;0.17;;;7.00;99.90;;;;;;5052049;28;20052;-81
2021/12/08 04:09:06;;;;;;;0.60;0.60;;;7.00;99.90;;;;;;5052905;28;20031;-80
2021/12/08 04:11:32;;;;;;;3.58;0.85;;;7.20;99.90;;;;;;5051781;28;20036;-81
2021/12/08 04:14:06;;;;;;;0.00;0.00;;;7.30;99.90;;;;;;5052777;28;20087;-81
2021/12/08 04:16:37;;;;;;;0.00;0.00;;;7.40;99.90;;;;;;5052490;28;20541;-81
2021/12/08 04:19:05;;;;;;;0.00;0.00;;;7.30;99.90;;;;;;5052144;28;20510;-81
2021/12/08 04:21:32;;;;;;;0.00;0.00;;;7.40;99.90;;;;;;5052652;28;20025;-81
2021/12/08 04:23:57;;;;;;;0.00;0.00;;;7.40;99.90;;;;;;5052767;28;20480;-81
2021/12/08 04:26:28;;;;;;;0.00;0.00;;;7.40;99.90;;;;;;5051949;28;20048;-81
2021/12/08 04:28:54;;;;;;;0.00;0.00;;;7.40;99.90;;;;;;5052513;28;20563;-81
2021/12/08 04:31:24;;;;;;;0.00;0.00;;;7.40;99.90;;;;;;5052248;28;20486;-81
2021/12/08 04:33:57;;;;;;;23.27;1.85;;;7.40;99.90;;;;;;5051559;28;20086;-81
2021/12/08 04:36:25;;;;;;;0.00;0.00;;;7.30;99.90;;;;;;5052515;28;20035;-82
2021/12/08 04:38:55;;;;;;;0.00;0.00;;;7.10;99.90;;;;;;5052419;28;20032;-81
2021/12/08 04:41:29;;;;;;;0.00;0.00;;;7.10;99.90;;;;;;5052521;28;20021;-81
2021/12/08 04:49:48;;;;;;;0.13;0.13;;;6.80;99.90;;;;;;5052318;28;20044;-82
2021/12/08 05:10:16;;;;;;;0.00;0.00;;;6.60;99.90;;;;;;5032231;28;20040;-81
2021/12/08 05:12:45;;;;;;;0.00;0.00;;;6.50;99.90;;;;;;5032279;28;20047;-81
2021/12/08 05:15:27;;;;;;;0.28;0.28;;;6.50;99.90;;;;;;5031431;28;20083;-81
2021/12/08 05:17:59;;;;;;;0.00;0.00;;;6.50;99.90;;;;;;5031501;28;20025;-81
2021/12/08 05:20:31;;;;;;;0.00;0.00;;;6.50;99.90;;;;;;5031488;28;20092;-81
2021/12/08 05:23:07;;;;;;;0.00;0.00;;;6.50;99.90;;;;;;5032147;28;20028;-81
2021/12/08 05:25:35;;;;;;;0.00;0.00;;;6.50;99.90;;;;;;5042986;28;20120;-81
2021/12/08 05:28:05;;;;;;;0.00;0.00;;;6.40;99.90;;;;;;5051605;28;20523;-81
2021/12/08 05:30:34;;;;;;;0.00;0.00;;;6.20;99.90;;;;;;5051949;28;20039;-81
2021/12/08 05:33:01;;;;;;;0.10;0.10;;;6.10;99.90;;;;;;5051894;28;20020;-81
2021/12/08 05:35:27;;;;;;;0.00;0.00;;;6.00;99.90;;;;;;5051511;28;20500;-81
2021/12/08 05:37:53;;;;;;;0.10;0.10;;;6.00;99.90;;;;;;5052021;28;20025;-81
2021/12/08 05:40:27;;;;;;;0.00;0.00;;;6.00;99.90;;;;;;5051789;28;20442;-81
2021/12/08 05:42:53;;;;;;;0.00;0.00;;;5.90;99.90;;;;;;5051798;28;20480;-81
2021/12/08 05:45:21;;;;;;;0.00;0.00;;;5.80;99.90;;;;;;5051597;28;20021;-81
2021/12/08 05:47:49;;;;;;;0.10;0.10;;;5.90;99.90;;;;;;5051826;28;20033;-81
2021/12/08 05:50:25;;;;;;;1.08;0.93;;;5.90;99.90;;;;;;5051450;28;20033;-81
2021/12/08 05:52:53;;;;;;;0.00;0.00;;;6.00;99.90;;;;;;5034498;28;20503;-81
2021/12/08 05:55:19;;;;;;;0.00;0.00;;;6.10;99.90;;;;;;5032077;28;20075;-81
2021/12/08 05:57:45;;;;;;;0.00;0.00;;;6.00;99.90;;;;;;5031410;28;20488;-81
2021/12/08 06:00:34;;;;;;;0.00;0.00;;;6.00;99.90;;;;;;5051045;28;20037;-81
2021/12/08 06:03:00;;;;;;;0.60;0.38;;;6.00;99.90;;;;;;5051569;28;20036;-81
2021/12/08 06:05:28;;;;;;;0.10;0.10;;;5.90;99.90;;;;;;5052486;28;20066;-81
2021/12/08 06:07:54;;;;;;;0.85;0.38;;;5.80;99.90;;;;;;5053883;28;20054;-81
2021/12/08 06:10:25;;;;;;;0.00;0.00;;;5.70;99.90;;;;;;5054769;28;20108;-81
2021/12/08 06:12:51;;;;;;;1.00;0.25;;;5.70;99.90;;;;;;5054848;28;20060;-81
2021/12/08 06:15:18;;;;;;;0.00;0.00;;;5.70;99.90;;;;;;5054682;28;20064;-81
2021/12/08 06:17:44;;;;;;;0.85;0.85;;;5.60;99.90;;;;;;5054355;28;20021;-81
2021/12/08 06:20:12;;;;;;;0.00;0.00;;;5.60;99.90;;;;;;5054583;28;20389;-81
2021/12/08 06:22:39;;;;;;;0.00;0.00;;;5.50;99.90;;;;;;5054991;28;20419;-81
2021/12/08 06:25:05;;;;;;;0.00;0.00;;;5.50;99.90;;;;;;5054425;28;20091;-81
2021/12/08 06:27:31;;;;;;;0.28;0.28;;;5.50;99.90;;;;;;5054596;28;20578;-81
2021/12/08 06:30:00;;;;;;;0.25;0.25;;;5.40;99.90;;;;;;5054510;28;20021;-81
2021/12/08 06:32:26;;;;;;;0.00;0.00;;;5.30;99.90;;;;;;5054489;28;20021;-81
2021/12/08 06:34:56;;;;;;;0.20;0.20;;;5.30;99.90;;;;;;5054424;28;20029;-81
2021/12/08 06:37:37;;;;;;;0.43;0.43;;;5.20;99.90;;;;;;5054186;28;20037;-81
2021/12/08 06:40:09;;;;;;;0.03;0.03;;;5.20;99.90;;;;;;5052107;28;20023;-81
2021/12/08 06:42:37;;;;;;;5.47;1.55;;;5.30;99.90;;;;;;5054073;28;20028;-81
2021/12/08 06:45:07;;;;;;;0.90;0.55;;;5.30;99.90;;;;;;5053022;28;20448;-81
2021/12/08 06:47:35;;;;;;;0.00;0.00;;;5.30;99.90;;;;;;5051678;28;20025;-81
2021/12/08 06:50:06;;;;;;;0.00;0.00;;;5.20;99.90;;;;;;5053664;28;20032;-81
2021/12/08 06:52:38;;;;;;;0.00;0.00;;;5.20;99.90;;;;;;5053544;28;20112;-81
2021/12/08 06:55:21;;;;;;;0.00;0.00;;;5.30;99.90;;;;;;5053481;28;20033;-81
2021/12/08 06:58:10;;;;;;;0.00;0.00;;;5.50;99.90;;;;;;5033563;28;20037;-81
2021/12/08 07:01:09;;;;;;;0.28;0.28;;;5.60;99.90;;;;;;5033076;28;20112;-81
2021/12/08 07:06:59;;;;;;;1.15;1.05;;;6.00;99.90;;;;;;5045311;28;20120;-81
2021/12/08 07:09:49;;;;;;;0.00;0.00;;;6.20;99.90;;;;;;5052241;28;20100;-81
2021/12/08 07:12:23;;;;;;;1.55;1.08;;;6.30;99.90;;;;;;5052092;28;20523;-82
2021/12/08 07:15:05;;;;;;;0.47;0.47;;;6.60;99.90;;;;;;5051953;28;20048;-81
2021/12/08 07:17:33;;;;;;;2.10;1.02;;;6.50;99.90;;;;;;5050424;28;20033;-82
2021/12/08 07:20:14;;;;;;;0.00;0.00;;;6.70;99.90;;;;;;5051766;28;20029;-81
2021/12/08 07:22:43;;;;;;;0.00;0.00;;;6.80;99.90;;;;;;5051988;28;20021;-81
2021/12/08 07:25:12;;;;;;;0.00;0.00;;;7.00;99.90;;;;;;5052407;28;20483;-81
2021/12/08 07:27:39;;;;;;;0.00;0.00;;;7.10;99.90;;;;;;5050379;28;20056;-81
2021/12/08 07:30:11;;;;;;;0.00;0.00;;;7.20;99.90;;;;;;5050027;28;20857;-82
2021/12/08 07:32:38;;;;;;;0.93;0.93;;;7.10;99.90;;;;;;5051770;28;20078;-80
2021/12/08 07:35:29;;;;;;;0.00;0.00;;;7.10;99.90;;;;;;5051620;28;20025;-81
2021/12/08 07:37:55;;;;;;;0.00;0.00;;;7.10;99.90;;;;;;5051467;28;20033;-81
2021/12/08 07:40:36;;;;;;;0.00;0.00;;;7.00;99.90;;;;;;5045573;28;20029;-81
2021/12/08 07:43:07;;;;;;;0.00;0.00;;;6.90;99.90;;;;;;5044978;28;20112;-81
2021/12/08 07:45:47;;;;;;;0.10;0.10;;;6.80;99.90;;;;;;5035858;28;20083;-81
2021/12/08 07:48:18;;;;;;;0.00;0.00;;;6.80;99.90;;;;;;5044337;28;20652;-81
2021/12/08 07:50:59;;;;;;;0.00;0.00;;;6.70;99.90;;;;;;5046919;28;20408;-80
2021/12/08 07:53:27;;;;;;;0.00;0.00;;;6.60;99.90;;;;;;5040948;28;20035;-77
2021/12/08 07:56:00;;;;;;;0.05;0.05;;;6.60;99.90;;;;;;5046740;28;20036;-77
2021/12/08 07:58:26;;;;;;;0.00;0.00;;;6.60;99.90;;;;;;5041993;28;20039;-78
2021/12/08 08:00:57;;;;;;;0.00;0.00;;;6.60;99.90;;;;;;5049653;28;20029;-78
2021/12/08 08:03:26;;;;;;;0.00;0.00;;;6.50;99.90;;;;;;5040215;28;20523;-76
2021/12/08 08:05:53;;;;;;;0.00;0.00;;;6.50;99.90;;;;;;5047076;28;20040;-77
2021/12/08 08:08:20;;;;;;;1.08;1.00;;;6.40;99.90;;;;;;5046237;28;20427;-78
2021/12/08 08:10:58;;;;;;;0.00;0.00;;;6.50;99.90;;;;;;5049339;28;20037;-76
2021/12/08 08:13:25;;;;;;;0.00;0.00;;;6.50;99.90;;;;;;5048415;28;20108;-76
2021/12/08 08:15:57;;;;;;;0.05;0.05;;;6.60;99.90;;;;;;5047805;28;20472;-77
2021/12/08 08:18:26;;;;;;;0.08;0.08;;;6.70;99.90;;;;;;5050467;28;20033;-77
2021/12/08 08:20:56;;;;;;;0.30;0.30;;;6.90;99.90;;;;;;5049911;28;20086;-76
2021/12/08 08:23:24;;;;;;;0.00;0.00;;;7.00;99.90;;;;;;5050128;28;20511;-77
2021/12/08 08:25:53;;;;;;;0.00;0.00;;;7.10;99.90;;;;;;5050641;28;20520;-78
2021/12/08 08:28:19;;;;;;;0.00;0.00;;;7.10;99.90;;;;;;5049275;28;20044;-78
2021/12/08 08:30:58;;;;;;;0.00;0.00;;;7.20;99.90;;;;;;5050920;28;20388;-78
2021/12/08 08:33:25;;;;;;;0.00;0.00;;;6.70;99.90;;;;;;5050363;28;20119;-78
2021/12/08 08:35:54;;;;;;;0.00;0.00;;;6.30;99.90;;;;;;5048090;28;20474;-77
2021/12/08 08:38:28;;;;;;;1.08;1.00;;;6.10;99.90;;;;;;5048421;28;20051;-78
2021/12/08 08:41:00;;;;;;;0.00;0.00;;;6.10;99.90;;;;;;5050145;28;20021;-78
2021/12/08 08:43:26;;;;;;;0.00;0.00;;;6.00;99.90;;;;;;5046483;28;20049;-78
2021/12/08 08:46:07;;;;;;;3.92;1.45;;;6.00;99.90;;;;;;5048982;28;20036;-78
2021/12/08 08:48:40;;;;;;;0.00;0.00;;;6.00;99.90;;;;;;5044460;28;20040;-77
2021/12/08 08:51:26;;;;;;;0.00;0.00;;;6.00;99.90;;;;;;5047506;28;20372;-78
2021/12/08 08:53:55;;;;;;;0.00;0.00;;;5.90;99.90;;;;;;5045127;28;20111;-78
2021/12/08 08:56:25;;;;;;;0.00;0.00;;;5.80;99.90;;;;;;5049858;28;20087;-78
2021/12/08 08:58:57;;;;;;;0.00;0.00;;;5.70;99.90;;;;;;5049791;28;20491;-77
2021/12/08 09:01:30;;;;;;;0.00;0.00;;;5.70;99.90;;;;;;5049744;28;20029;-78
2021/12/08 09:04:28;;;;;;;0.00;0.00;;;5.60;99.90;;;;;;5049198;28;20063;-77
2021/12/08 09:06:57;;;;;;;0.00;0.00;;;5.50;99.90;;;;;;5048829;28;20538;-78
2021/12/08 09:09:27;;;;;;;1.30;0.73;;;5.50;99.90;;;;;;5048785;28;20047;-78
2021/12/08 09:12:20;;;;;;;0.00;0.00;;;5.40;99.90;;;;;;5048805;28;20025;-78
2021/12/08 09:15:00;;;;;;;0.20;0.20;;;5.30;99.90;;;;;;5047624;28;20586;-79
2021/12/08 09:17:34;;;;;;;0.00;0.00;;;5.30;99.90;;;;;;5044251;28;20040;-78
2021/12/08 09:20:22;;;;;;;0.00;0.00;;;5.30;99.90;;;;;;5048444;28;20033;-78
2021/12/08 09:22:56;;;;;;;0.00;0.00;;;5.40;99.90;;;;;;5049530;28;20103;-78
2021/12/08 09:25:56;;;;;;;0.00;0.00;;;5.60;99.90;;;;;;5049708;28;20108;-78
2021/12/08 09:28:29;;;;;;;0.03;0.03;;;5.90;99.90;;;;;;5039978;28;20059;-78
2021/12/08 09:31:01;;;;;;;;;;;6.10;99.90;;;;;;5050697;28;20429;-78
2021/12/08 09:33:36;;;;;;;0.00;0.00;;;6.30;99.90;;;;;;5047644;28;19905;-78
2021/12/08 09:36:10;;;;;;;0.00;0.00;;;6.50;99.90;;;;;;5048075;28;20033;-78
2021/12/08 09:38:58;;;;;;;1.45;0.75;;;6.50;99.90;;;;;;5048629;28;20534;-79
2021/12/08 09:41:39;;;;;;;0.63;0.50;;;6.60;99.90;;;;;;5044941;28;20114;-78
2021/12/08 09:44:13;;;;;;;0.95;0.93;;;6.70;99.90;;;;;;5053149;28;20037;-78
2021/12/08 09:46:42;;;;;;;14.70;0.43;;;6.70;99.90;;;;;;5053648;28;20013;-78
2021/12/08 09:49:11;;;;;;;0.00;0.00;;;6.80;99.90;;;;;;5050495;28;20097;-78
2021/12/08 09:51:38;;;;;;;0.00;0.00;;;6.90;99.90;;;;;;5053200;28;20561;-78
2021/12/08 09:54:04;;;;;;;0.00;0.00;;;7.00;99.90;;;;;;5052710;28;20032;-78
2021/12/08 09:56:33;;;;;;;0.00;0.00;;;7.20;99.90;;;;;;5053026;28;20024;-78
2021/12/08 09:59:00;;;;;;;0.38;0.38;;;7.30;99.90;;;;;;5053361;28;20033;-78
2021/12/08 10:01:26;;;;;;;0.00;0.00;;;7.40;99.90;;;;;;5052956;28;20052;-77
2021/12/08 10:03:55;;;;;;;0.00;0.00;;;7.50;99.90;;;;;;5051903;28;20075;-78
2021/12/08 10:06:23;;;;;;;4.38;1.75;;;7.50;99.90;;;;;;5052699;28;20037;-80
2021/12/08 10:08:49;;;;;;;0.10;0.10;;;7.60;99.90;;;;;;5052611;28;20752;-78
2021/12/08 10:11:17;;;;;;;0.00;0.00;;;7.70;99.90;;;;;;5050593;28;20036;-78
2021/12/08 10:13:45;;;;;;;0.03;0.03;;;7.80;99.90;;;;;;5052131;28;20079;-78
2021/12/08 10:16:12;;;;;;;0.05;0.05;;;7.80;99.90;;;;;;5052740;28;20471;-77
2021/12/08 10:18:38;;;;;;;0.00;0.00;;;7.60;99.90;;;;;;5052143;28;20035;-78
2021/12/08 10:21:04;;;;;;;0.00;0.00;;;7.40;99.90;;;;;;5048826;28;20391;-77
2021/12/08 10:23:36;;;;;;;0.00;0.00;;;7.20;99.90;;;;;;5051979;28;20040;-77
2021/12/08 10:26:06;;;;;;;0.00;0.00;;;7.10;99.90;;;;;;5052569;28;20488;-78
2021/12/08 10:28:46;;;;;;;0.00;0.00;;;7.10;99.90;;;;;;5052947;28;20033;-77
2021/12/08 10:31:15;;;;;;;0.00;0.00;;;7.10;99.90;;;;;;5052327;28;20120;-77
2021/12/08 10:36:36;;;;;;;0.00;0.00;;;7.30;99.90;;;;;;5052347;28;20112;-77
2021/12/08 10:39:10;;;;;;;0.00;0.00;;;7.20;99.90;;;;;;5050972;28;20056;-78
2021/12/08 10:41:52;;;;;;;0.40;0.40;;;7.20;99.90;;;;;;5051312;28;20501;-78
2021/12/08 10:44:32;;;;;;;0.00;0.00;;;7.10;99.90;;;;;;5052337;28;20025;-77
2021/12/08 10:46:59;;;;;;;2.17;0.85;;;7.10;99.90;;;;;;5052966;28;20075;-78
2021/12/08 10:54:44;;;;;;;0.00;0.00;;;6.90;99.90;;;;;;5048294;28;20388;-77
2021/12/08 10:57:37;;;;;;;0.00;0.00;;;6.90;99.90;;;;;;5051926;28;20028;-76
2021/12/08 11:00:04;;;;;;;0.00;0.00;;;6.80;99.90;;;;;;5051845;28;20021;-77
2021/12/08 11:02:52;;;;;;;0.00;0.00;;;6.80;99.90;;;;;;5048599;28;20533;-78
2021/12/08 11:05:29;;;;;;;0.00;0.00;;;6.80;99.90;;;;;;5049073;28;20024;-77
2021/12/08 11:07:59;;;;;;;0.00;0.00;;;6.70;99.90;;;;;;5051590;28;20448;-78
2021/12/08 11:10:26;;;;;;;0.00;0.00;;;6.70;99.90;;;;;;5050656;28;20112;-78
2021/12/08 11:12:54;;;;;;;0.00;0.00;;;6.60;99.90;;;;;;5049039;28;20040;-76
2021/12/08 11:15:25;;;;;;;0.30;0.30;;;6.60;99.90;;;;;;5050437;28;20029;-78
2021/12/08 11:18:07;;;;;;;0.00;0.00;;;6.60;99.90;;;;;;5032724;28;20810;-78
2021/12/08 11:20:39;;;;;;;0.00;0.00;;;6.50;99.90;;;;;;5049387;28;20029;-77
2021/12/08 11:23:08;;;;;;;0.00;0.00;;;6.60;99.90;;;;;;5051037;28;20446;-77
2021/12/08 11:25:40;;;;;;;0.30;0.20;;;6.60;99.90;;;;;;5050334;28;20039;-77
2021/12/08 11:28:21;;;;;;;0.00;0.00;;;6.70;99.90;;;;;;5049905;28;20488;-78
2021/12/08 11:30:47;;;;;;;0.20;0.20;;;6.70;99.90;;;;;;5047531;28;20029;-76
2021/12/08 11:33:21;;;;;;;0.20;0.20;;;6.80;99.90;;;;;;5051576;28;20108;-79
2021/12/08 11:35:47;;;;;;;0.00;0.00;;;6.90;99.90;;;;;;5050390;28;20488;-76
2021/12/08 11:38:13;;;;;;;0.00;0.00;;;7.00;99.90;;;;;;5050740;28;20045;-77
2021/12/08 11:40:39;;;;;;;0.00;0.00;;;7.00;99.90;;;;;;5051285;28;20101;-77
2021/12/08 11:43:14;;;;;;;0.00;0.00;;;7.00;99.90;;;;;;5051595;28;20028;-77
2021/12/08 11:45:42;;;;;;;0.00;0.00;;;7.10;99.90;;;;;;5050023;28;20349;-78
2021/12/08 11:48:25;;;;;;;0.10;0.10;;;7.10;99.90;;;;;;5050289;28;20096;-79
2021/12/08 11:51:11;;;;;;;0.00;0.00;;;7.10;99.90;;;;;;5047815;28;20033;-78
2021/12/08 11:53:38;;;;;;;0.22;0.22;;;7.10;99.90;;;;;;5049349;28;20033;-76
2021/12/08 11:56:05;;;;;;;0.20;0.20;;;7.10;99.90;;;;;;5050177;28;20365;-77
2021/12/08 11:58:31;;;;;;;0.00;0.00;;;7.20;99.90;;;;;;5049829;28;20035;-77
2021/12/08 12:00:58;;;;;;;0.00;0.00;;;7.20;99.90;;;;;;5049226;28;20029;-79
2021/12/08 12:03:23;;;;;;;0.00;0.00;;;7.80;99.90;;;;;;5048268;28;20037;-82
2021/12/08 12:05:49;;;;;;;0.65;0.65;;;8.40;99.90;;;;;;5050913;28;20031;-80
2021/12/08 12:08:18;;;;;;;0.32;0.20;;;8.90;99.90;;;;;;5052065;28;20052;-80
2021/12/08 12:10:49;;;;;;;0.13;0.13;;;9.30;99.90;;;;;;5051886;28;20033;-79
2021/12/08 12:13:16;;;;;;;0.00;0.00;;;9.20;99.90;;;;;;5050307;28;20040;-78
2021/12/08 12:15:46;;;;;;;0.80;0.65;;;9.00;99.90;;;;;;5051900;28;20415;-80
2021/12/08 12:18:13;;;;;;;0.00;0.00;;;8.70;99.90;;;;;;5051095;28;20033;-79
2021/12/08 12:20:49;;;;;;;0.75;0.28;;;8.60;99.90;;;;;;5032998;28;20030;-78
2021/12/08 12:23:51;;;;;;;0.10;0.10;;;8.70;99.90;;;;;;5034800;28;20345;-80
2021/12/08 12:26:31;;;;;;;0.00;0.00;;;8.80;99.90;;;;;;5051455;28;20040;-80
2021/12/08 12:29:40;;;;;;;0.00;0.00;;;9.20;99.90;;;;;;5051195;28;20062;-77
2021/12/08 12:32:31;;;;;;;0.00;0.00;;;9.40;99.90;;;;;;5025996;28;20082;-78
2021/12/08 12:35:16;;;;;;;0.00;0.00;;;9.50;99.90;;;;;;5050366;28;20037;-77
2021/12/08 12:37:42;;;;;;;0.00;0.00;;;9.00;99.90;;;;;;5051674;28;20368;-78
2021/12/08 12:40:14;;;;;;;0.00;0.00;;;8.80;99.90;;;;;;5050836;28;20070;-78
2021/12/08 12:42:50;;;;;;;0.10;0.10;;;8.70;99.90;;;;;;5044906;28;20056;-77
2021/12/08 12:45:16;;;;;;;0.00;0.00;;;8.60;99.90;;;;;;5049942;28;20381;-76
2021/12/08 12:48:03;;;;;;;0.80;0.63;;;8.50;99.90;;;;;;5050558;28;20768;-78
2021/12/08 12:50:29;;;;;;;1.05;0.40;;;8.40;99.90;;;;;;5049321;28;20032;-78
2021/12/08 12:52:57;;;;;;;0.08;0.08;;;8.30;99.90;;;;;;5049483;28;20563;-77
2021/12/08 12:55:38;;;;;;;0.47;0.47;;;8.20;99.90;;;;;;5046555;28;20147;-78
2021/12/08 12:58:08;;;;;;;0.00;0.00;;;8.10;99.90;;;;;;5047461;28;20039;-77
2021/12/08 13:00:43;;;;;;;0.43;0.43;;;8.00;99.90;;;;;;5042198;28;20033;-76
2021/12/08 13:03:29;;;;;;;0.00;0.00;;;8.00;99.90;;;;;;5040080;28;20021;-77
2021/12/08 13:05:55;;;;;;;0.20;0.20;;;8.00;99.90;;;;;;5038268;28;20029;-78
2021/12/08 13:08:31;;;;;;;0.03;0.03;;;8.00;99.90;;;;;;5049765;28;20509;-78
2021/12/08 13:11:00;;;;;;;0.03;0.03;;;8.00;99.90;;;;;;5048925;28;20381;-77
2021/12/08 13:13:27;;;;;;;0.00;0.00;;;8.10;99.90;;;;;;5037062;28;20029;-76
2021/12/08 13:15:53;;;;;;;0.00;0.00;;;8.10;99.90;;;;;;5041233;28;20040;-77
2021/12/08 13:18:21;;;;;;;0.00;0.00;;;8.10;99.90;;;;;;5051691;28;20100;-77
2021/12/08 13:20:58;;;;;;;0.52;0.38;;;8.10;99.90;;;;;;5053483;28;20029;-76
2021/12/08 13:23:28;;;;;;;0.00;0.00;;;8.10;99.90;;;;;;5053518;28;20056;-77
2021/12/08 13:26:10;;;;;;;0.00;0.00;;;8.10;99.90;;;;;;5052343;28;20036;-77
2021/12/08 13:28:53;;;;;;;0.43;0.43;;;8.00;99.90;;;;;;5049459;28;20047;-76
2021/12/08 13:31:26;;;;;;;0.05;0.05;;;8.00;99.90;;;;;;5052498;28;20086;-78
2021/12/08 13:33:52;;;;;;;0.00;0.00;;;8.00;99.90;;;;;;5052305;28;20593;-77
2021/12/08 13:36:20;;;;;;;0.32;0.20;;;8.00;99.90;;;;;;5052092;28;20109;-77
2021/12/08 13:39:19;;;;;;;0.00;0.00;;;7.90;99.90;;;;;;5052492;28;20103;-77
2021/12/08 13:42:05;;;;;;;0.15;0.15;;;8.00;99.90;;;;;;5051136;28;20414;-77
2021/12/08 13:44:40;;;;;;;0.28;0.28;;;8.00;99.90;;;;;;5044549;28;20056;-77
2021/12/08 13:47:46;;;;;;;0.00;0.00;;;8.00;99.90;;;;;;5052361;28;20035;-78
2021/12/08 13:50:23;;;;;;;0.22;0.22;;;8.00;99.90;;;;;;5033295;28;20029;-78
2021/12/08 13:53:05;;;;;;;1.05;1.05;;;8.00;99.90;;;;;;5043001;28;20032;-76
2021/12/08 13:55:33;;;;;;;0.00;0.00;;;8.00;99.90;;;;;;5034424;28;20068;-76
2021/12/08 13:58:05;;;;;;;0.00;0.00;;;8.00;99.90;;;;;;5033214;28;20056;-78
2021/12/08 14:00:43;;;;;;;0.00;0.00;;;8.00;99.90;;;;;;5034805;28;20032;-76
2021/12/08 14:03:16;;;;;;;0.30;0.28;;;8.00;99.90;;;;;;5042651;28;20031;-77
2021/12/08 14:05:56;;;;;;;0.00;0.00;;;7.90;99.90;;;;;;5029665;28;20060;-77
2021/12/08 14:08:33;;;;;;;0.25;0.25;;;7.90;99.90;;;;;;5029576;28;20550;-75
2021/12/08 14:11:00;;;;;;;0.00;0.00;;;7.80;99.90;;;;;;5029805;28;20029;-76
2021/12/08 14:13:28;;;;;;;0.00;0.00;;;7.80;99.90;;;;;;5026650;28;20041;-76
2021/12/08 14:16:03;;;;;;;0.00;0.00;;;7.80;99.90;;;;;;5029645;28;20032;-77